createdAt,value
2023-02-19T00:00:40.089Z,13.34
2023-02-19T00:03:43.170Z,13.38
2023-02-19T00:06:46.427Z,13.30
2023-02-19T00:09:51.288Z,13.23
2023-02-19T00:12:53.438Z,13.33
2023-02-19T00:15:56.580Z,13.31
2023-02-19T00:18:59.690Z,13.28
2023-02-19T00:22:01.894Z,13.24
2023-02-19T00:25:04.198Z,13.23
2023-02-19T00:28:06.408Z,13.21
2023-02-19T00:31:12.435Z,13.19
2023-02-19T00:34:15.341Z,13.12
2023-02-19T00:37:17.598Z,13.11
2023-02-19T00:40:19.759Z,13.13
2023-02-19T00:43:22.194Z,13.04
2023-02-19T00:46:40.017Z,13.12
2023-02-19T00:49:42.197Z,13.11
2023-02-19T00:52:44.294Z,13.13
2023-02-19T00:55:46.557Z,13.05
2023-02-19T00:58:49.307Z,13.12
2023-02-19T01:01:51.673Z,12.94
2023-02-19T01:04:53.910Z,13.07
2023-02-19T01:07:56.108Z,13.07
2023-02-19T01:10:59.066Z,13.01
2023-02-19T01:14:01.965Z,13.03
2023-02-19T01:17:04.236Z,13.11
2023-02-19T01:20:06.988Z,12.99
2023-02-19T01:23:10.976Z,13.03
2023-02-19T01:26:16.221Z,13.08
2023-02-19T01:29:18.478Z,13.10
2023-02-19T01:32:20.839Z,13.07
2023-02-19T01:35:23.185Z,13.02
2023-02-19T01:38:25.754Z,13.17
2023-02-19T01:41:27.837Z,12.97
2023-02-19T01:44:31.156Z,13.00
2023-02-19T01:47:33.329Z,12.95
2023-02-19T01:50:50.371Z,12.96
2023-02-19T01:53:57.192Z,12.68
2023-02-19T01:56:59.934Z,12.61
2023-02-19T02:00:07.051Z,12.63
2023-02-19T02:03:14.502Z,12.38
2023-02-19T02:06:23.499Z,12.42
2023-02-19T02:09:46.813Z,12.45
2023-02-19T02:12:50.467Z,12.58
2023-02-19T02:15:58.539Z,12.26
2023-02-19T02:19:38.138Z,12.40
2023-02-19T02:22:48.882Z,12.36
2023-02-19T02:25:58.494Z,12.42
2023-02-19T02:29:37.980Z,12.47
2023-02-19T02:32:53.367Z,12.32
2023-02-19T02:36:26.339Z,12.32
2023-02-19T02:39:29.962Z,12.36
2023-02-19T02:42:34.756Z,12.51
2023-02-19T02:45:41.602Z,12.73
2023-02-19T02:48:54.084Z,12.77
2023-02-19T02:51:58.251Z,12.68
2023-02-19T02:55:03.710Z,12.76
2023-02-19T02:58:08.763Z,12.64
2023-02-19T03:01:50.689Z,12.84
2023-02-19T03:05:13.485Z,12.91
2023-02-19T03:08:26.146Z,12.82
2023-02-19T03:11:48.240Z,12.87
2023-02-19T03:15:11.738Z,12.79
2023-02-19T03:18:32.952Z,12.55
2023-02-19T03:21:38.212Z,12.77
2023-02-19T03:25:09.862Z,12.76
2023-02-19T03:28:16.062Z,12.76
2023-02-19T03:31:20.921Z,12.74
2023-02-19T03:34:26.426Z,12.82
2023-02-19T03:37:44.408Z,12.80
2023-02-19T03:40:58.739Z,12.77
2023-02-19T03:44:07.622Z,12.69
2023-02-19T03:47:13.486Z,12.77
2023-02-19T03:50:46.179Z,12.64
2023-02-19T03:54:16.319Z,12.75
2023-02-19T03:57:23.370Z,12.59
2023-02-19T04:00:43.944Z,12.74
2023-02-19T04:04:17.360Z,12.77
2023-02-19T04:07:19.654Z,12.76
2023-02-19T04:10:22.699Z,12.65
2023-02-19T04:13:31.107Z,12.50
2023-02-19T04:16:35.236Z,12.59
2023-02-19T04:19:42.035Z,12.56
2023-02-19T04:22:44.342Z,12.55
2023-02-19T04:25:48.642Z,12.35
2023-02-19T04:28:50.778Z,12.42
2023-02-19T04:31:52.960Z,12.44
2023-02-19T04:34:55.232Z,12.32
2023-02-19T04:37:57.388Z,12.42
2023-02-19T04:40:59.557Z,12.30
2023-02-19T04:44:01.679Z,12.42
2023-02-19T04:47:03.907Z,12.32
2023-02-19T04:50:06.233Z,12.43
2023-02-19T04:53:08.440Z,12.27
2023-02-19T04:56:13.243Z,12.29
2023-02-19T04:59:15.431Z,12.43
2023-02-19T05:02:17.646Z,12.39
2023-02-19T05:05:19.813Z,12.33
2023-02-19T05:08:22.016Z,12.55
2023-02-19T05:11:24.449Z,12.57
2023-02-19T05:14:26.646Z,12.43
2023-02-19T05:17:28.835Z,12.41
2023-02-19T05:20:30.966Z,12.28
2023-02-19T05:23:33.268Z,12.23
2023-02-19T05:26:35.958Z,12.11
2023-02-19T05:29:38.143Z,12.33
2023-02-19T05:32:40.460Z,12.29
2023-02-19T05:35:48.787Z,12.29
2023-02-19T05:38:55.877Z,12.22
2023-02-19T05:41:57.976Z,12.08
2023-02-19T05:45:00.117Z,12.16
2023-02-19T05:48:03.100Z,12.09
2023-02-19T05:51:11.914Z,12.11
2023-02-19T05:54:14.264Z,12.06
2023-02-19T05:57:16.431Z,11.93
2023-02-19T06:00:20.044Z,12.13
2023-02-19T06:03:22.535Z,12.09
2023-02-19T06:06:25.744Z,12.10
2023-02-19T06:09:27.946Z,12.09
2023-02-19T06:12:30.123Z,12.01
2023-02-19T06:15:32.344Z,12.04
2023-02-19T06:22:05.225Z,11.92
2023-02-19T06:25:12.071Z,11.93
2023-02-19T06:28:14.241Z,11.97
2023-02-19T06:31:17.485Z,11.83
2023-02-19T06:34:19.630Z,11.74
2023-02-19T06:37:21.821Z,11.70
2023-02-19T06:40:23.966Z,11.73
2023-02-19T06:43:26.126Z,11.60
2023-02-19T06:46:28.369Z,11.80
2023-02-19T06:49:30.601Z,11.82
2023-02-19T06:52:33.427Z,11.67
2023-02-19T06:55:35.618Z,11.72
2023-02-19T06:58:37.806Z,11.72
2023-02-19T07:01:40.493Z,11.69
2023-02-19T07:04:42.618Z,11.66
2023-02-19T07:07:46.082Z,11.63
2023-02-19T07:10:59.701Z,11.64
2023-02-19T07:14:03.936Z,11.73
2023-02-19T07:17:06.143Z,11.56
2023-02-19T07:20:08.521Z,11.70
2023-02-19T07:23:10.732Z,11.58
2023-02-19T07:26:14.997Z,11.54
2023-02-19T07:29:17.368Z,11.74
2023-02-19T07:32:19.484Z,11.73
2023-02-19T07:35:21.659Z,11.72
2023-02-19T07:38:24.964Z,11.77
2023-02-19T07:41:27.451Z,11.83
2023-02-19T07:44:33.267Z,11.86
2023-02-19T07:47:35.489Z,11.88
2023-02-19T07:50:37.624Z,11.99
2023-02-19T07:53:39.786Z,12.03
2023-02-19T07:56:41.964Z,11.99
2023-02-19T07:59:44.071Z,12.00
2023-02-19T08:03:02.166Z,11.98
2023-02-19T08:06:05.512Z,11.71
2023-02-19T08:09:08.168Z,11.96
2023-02-19T08:12:32.196Z,11.82
2023-02-19T08:15:34.391Z,11.86
2023-02-19T08:18:36.717Z,11.96
2023-02-19T08:21:38.867Z,11.80
2023-02-19T08:24:42.886Z,11.71
2023-02-19T08:27:45.933Z,11.67
2023-02-19T08:30:48.385Z,11.77
2023-02-19T08:33:50.688Z,11.44
2023-02-19T08:36:52.860Z,11.53
2023-02-19T08:39:55.015Z,11.46
2023-02-19T08:43:02.834Z,11.29
2023-02-19T08:46:07.074Z,11.54
2023-02-19T08:49:09.294Z,11.60
2023-02-19T08:52:11.657Z,11.69
2023-02-19T08:55:14.021Z,11.57
2023-02-19T08:58:16.454Z,11.71
2023-02-19T09:01:18.872Z,11.59
2023-02-19T09:04:21.378Z,11.71
2023-02-19T09:07:23.731Z,11.80
2023-02-19T09:10:25.912Z,11.88
2023-02-19T09:13:28.161Z,11.88
2023-02-19T09:16:30.258Z,11.77
2023-02-19T09:19:32.749Z,11.73
2023-02-19T09:22:35.136Z,11.64
2023-02-19T09:25:37.271Z,11.88
2023-02-19T09:28:41.630Z,11.81
2023-02-19T09:31:44.265Z,11.79
2023-02-19T09:34:46.500Z,11.75
2023-02-19T09:37:48.651Z,11.95
2023-02-19T09:40:51.043Z,11.98
2023-02-19T09:43:53.318Z,12.12
2023-02-19T09:46:55.750Z,12.04
2023-02-19T09:50:09.374Z,12.10
2023-02-19T09:53:19.648Z,12.43
2023-02-19T09:56:26.320Z,12.56
2023-02-19T09:59:44.243Z,12.84
2023-02-19T10:02:46.529Z,12.91
2023-02-19T10:05:48.726Z,12.90
2023-02-19T10:08:53.257Z,13.04
2023-02-19T10:11:56.224Z,13.01
2023-02-19T10:15:04.763Z,13.18
2023-02-19T10:18:09.499Z,13.37
2023-02-19T10:21:19.926Z,13.58
2023-02-19T10:24:26.119Z,13.80
2023-02-19T10:27:31.032Z,14.03
2023-02-19T10:30:35.142Z,14.29
2023-02-19T10:33:49.279Z,14.49
2023-02-19T10:36:52.707Z,14.63
2023-02-19T10:39:55.334Z,14.66
2023-02-19T10:42:59.575Z,14.38
2023-02-19T10:46:08.208Z,14.31
2023-02-19T10:49:32.345Z,14.42
2023-02-19T10:52:36.216Z,14.51
2023-02-19T10:55:40.709Z,14.57
2023-02-19T10:58:44.954Z,14.61
2023-02-19T11:02:17.356Z,14.78
2023-02-19T11:05:20.098Z,14.97
2023-02-19T11:08:23.443Z,15.05
2023-02-19T11:11:32.717Z,15.22
2023-02-19T11:14:35.466Z,15.46
2023-02-19T11:17:37.688Z,15.60
2023-02-19T11:20:47.180Z,16.07
2023-02-19T11:23:49.421Z,16.80
2023-02-19T11:26:51.699Z,16.00
2023-02-19T11:29:54.060Z,16.95
2023-02-19T11:32:57.083Z,17.51
2023-02-19T11:36:28.697Z,17.50
2023-02-19T11:39:32.223Z,17.62
2023-02-19T11:42:45.055Z,18.45
2023-02-19T11:46:09.669Z,18.89
2023-02-19T11:49:39.912Z,18.84
2023-02-19T11:53:00.931Z,18.84
2023-02-19T11:56:19.427Z,17.57
2023-02-19T11:59:32.169Z,19.15
2023-02-19T12:03:11.780Z,19.76
2023-02-19T12:06:23.817Z,20.97
2023-02-19T12:09:36.860Z,21.20
2023-02-19T12:12:38.895Z,19.99
2023-02-19T12:15:57.147Z,19.42
2023-02-19T12:19:42.240Z,20.25
2023-02-19T12:23:17.571Z,19.03
2023-02-19T12:26:24.064Z,20.68
2023-02-19T12:29:48.993Z,22.00
2023-02-19T12:33:03.674Z,21.98
2023-02-19T12:36:22.131Z,21.43
2023-02-19T12:39:57.701Z,22.04
2023-02-19T12:43:02.767Z,21.51
2023-02-19T12:46:10.149Z,21.86
2023-02-19T12:49:30.407Z,20.96
2023-02-19T12:52:36.826Z,20.08
2023-02-19T12:55:43.323Z,18.01
2023-02-19T12:58:49.941Z,16.73
2023-02-19T13:02:02.033Z,16.22
2023-02-19T13:05:25.794Z,15.89
2023-02-19T13:09:03.522Z,15.45
2023-02-19T13:12:18.064Z,15.29
2023-02-19T13:15:41.893Z,15.40
2023-02-19T13:18:50.227Z,16.64
2023-02-19T13:22:32.420Z,17.84
2023-02-19T13:26:09.243Z,16.78
2023-02-19T13:29:33.562Z,16.23
2023-02-19T13:32:50.158Z,16.51
2023-02-19T13:36:06.051Z,16.16
2023-02-19T13:39:08.274Z,15.63
2023-02-19T13:42:24.584Z,15.30
2023-02-19T13:45:47.040Z,15.26
2023-02-19T13:49:25.080Z,14.66
2023-02-19T13:52:30.219Z,14.06
2023-02-19T13:55:49.791Z,13.59
2023-02-19T13:58:54.257Z,13.26
2023-02-19T14:01:56.476Z,12.97
2023-02-19T14:05:01.536Z,12.94
2023-02-19T14:08:03.798Z,12.88
2023-02-19T14:11:06.032Z,12.80
2023-02-19T14:14:28.385Z,12.82
2023-02-19T14:17:40.355Z,12.77
2023-02-19T14:20:45.905Z,12.93
2023-02-19T14:23:53.863Z,13.02
2023-02-19T14:26:57.293Z,13.19
2023-02-19T14:29:59.959Z,13.29
2023-02-19T14:33:10.613Z,13.31
2023-02-19T14:36:27.080Z,13.77
2023-02-19T14:39:31.517Z,15.29
2023-02-19T14:42:34.064Z,16.18
2023-02-19T14:45:43.492Z,16.46
2023-02-19T14:48:48.524Z,16.36
2023-02-19T14:51:54.030Z,16.24
2023-02-19T14:55:00.516Z,15.65
2023-02-19T14:58:22.916Z,15.42
2023-02-19T15:01:27.086Z,15.55
2023-02-19T15:04:36.655Z,15.37
2023-02-19T15:07:38.921Z,15.48
2023-02-19T15:10:44.285Z,14.62
2023-02-19T15:13:56.234Z,13.91
2023-02-19T15:17:01.454Z,13.63
2023-02-19T15:20:10.751Z,13.45
2023-02-19T15:23:20.288Z,13.27
2023-02-19T15:26:27.506Z,13.29
2023-02-19T15:29:30.109Z,13.24
2023-02-19T15:32:33.028Z,13.09
2023-02-19T15:35:36.491Z,12.97
2023-02-19T15:38:39.111Z,13.30
2023-02-19T15:41:42.839Z,12.94
2023-02-19T15:44:51.729Z,12.84
2023-02-19T15:48:05.833Z,12.69
2023-02-19T15:51:13.708Z,12.69
2023-02-19T15:54:45.000Z,12.73
2023-02-19T15:57:53.420Z,12.72
2023-02-19T16:01:08.363Z,12.72
2023-02-19T16:04:13.869Z,12.57
2023-02-19T16:07:31.890Z,12.50
2023-02-19T16:10:34.041Z,12.54
2023-02-19T16:13:36.201Z,12.56
2023-02-19T16:16:39.669Z,12.45
2023-02-19T16:19:57.748Z,12.60
2023-02-19T16:23:06.102Z,12.52
2023-02-19T16:26:08.267Z,12.55
2023-02-19T16:29:18.538Z,12.45
2023-02-19T16:32:20.859Z,12.36
2023-02-19T16:35:42.219Z,12.41
2023-02-19T16:39:12.937Z,12.47
2023-02-19T16:42:15.220Z,12.41
2023-02-19T16:45:18.485Z,12.17
2023-02-19T16:48:22.367Z,11.93
2023-02-19T16:51:25.900Z,11.58
2023-02-19T16:54:28.067Z,11.43
2023-02-19T16:57:30.325Z,11.29
2023-02-19T17:00:32.876Z,11.25
2023-02-19T17:03:36.895Z,11.43
2023-02-19T17:06:39.456Z,11.44
2023-02-19T17:09:41.705Z,11.32
2023-02-19T17:12:43.832Z,11.30
2023-02-19T17:15:46.054Z,11.36
2023-02-19T17:18:48.255Z,11.31
2023-02-19T17:21:50.460Z,11.28
2023-02-19T17:24:54.591Z,11.26
2023-02-19T17:27:56.795Z,11.24
2023-02-19T17:30:59.004Z,11.26
2023-02-19T17:34:01.235Z,11.21
2023-02-19T17:37:03.530Z,11.16
2023-02-19T17:40:31.914Z,11.12
2023-02-19T17:43:35.201Z,11.15
2023-02-19T17:46:38.378Z,11.09
2023-02-19T17:49:40.600Z,11.04
2023-02-19T17:52:42.759Z,11.14
2023-02-19T17:55:45.091Z,11.08
2023-02-19T17:58:47.619Z,10.97
2023-02-19T18:01:49.807Z,10.91
2023-02-19T18:04:52.036Z,10.74
2023-02-19T18:07:54.328Z,10.83
2023-02-19T18:10:56.620Z,10.85
2023-02-19T18:13:59.627Z,10.95
2023-02-19T18:17:02.178Z,11.18
2023-02-19T18:20:05.030Z,11.33
2023-02-19T18:23:07.626Z,11.26
2023-02-19T18:26:10.861Z,11.17
2023-02-19T18:29:13.212Z,11.18
2023-02-19T18:32:15.500Z,11.22
2023-02-19T18:35:19.293Z,11.08
2023-02-19T18:38:22.646Z,11.06
2023-02-19T18:41:24.842Z,11.22
2023-02-19T18:44:27.002Z,11.10
2023-02-19T18:47:29.206Z,11.15
2023-02-19T18:50:31.565Z,11.16
2023-02-19T18:53:33.778Z,11.05
2023-02-19T18:56:46.101Z,11.11
2023-02-19T18:59:48.328Z,11.02
2023-02-19T19:02:51.220Z,10.89
2023-02-19T19:05:53.744Z,10.83
2023-02-19T19:08:56.049Z,10.93
2023-02-19T19:11:58.297Z,10.82
2023-02-19T19:15:00.439Z,10.77
2023-02-19T19:18:02.854Z,10.66
2023-02-19T19:21:05.771Z,10.65
2023-02-19T19:24:08.981Z,10.57
2023-02-19T19:27:11.302Z,10.53
2023-02-19T19:30:14.228Z,10.48
2023-02-19T19:33:17.674Z,10.58
2023-02-19T19:36:22.667Z,10.66
2023-02-19T19:39:24.823Z,10.40
2023-02-19T19:42:27.156Z,10.46
2023-02-19T19:45:29.360Z,10.43
2023-02-19T19:48:33.099Z,10.34
2023-02-19T19:51:35.455Z,10.50
2023-02-19T19:54:37.639Z,10.43
2023-02-19T19:57:41.015Z,10.61
2023-02-19T20:00:43.276Z,10.45
2023-02-19T20:03:45.527Z,10.48
2023-02-19T20:06:48.091Z,10.32
2023-02-19T20:09:50.386Z,10.59
2023-02-19T20:12:52.616Z,10.48
2023-02-19T20:15:54.905Z,10.74
2023-02-19T20:18:57.115Z,10.91
2023-02-19T20:21:59.524Z,10.78
2023-02-19T20:25:01.640Z,10.85
2023-02-19T20:28:03.904Z,10.98
2023-02-19T20:31:08.128Z,10.97
2023-02-19T20:34:10.352Z,10.62
2023-02-19T20:37:12.647Z,10.72
2023-02-19T20:40:17.247Z,10.38
2023-02-19T20:43:20.144Z,10.64
2023-02-19T20:46:42.362Z,10.65
2023-02-19T20:49:49.443Z,10.60
2023-02-19T20:52:55.970Z,10.62
2023-02-19T20:56:16.725Z,10.36
2023-02-19T20:59:24.170Z,10.47
2023-02-19T21:05:56.027Z,10.02
2023-02-19T21:09:15.188Z,10.13
2023-02-19T21:12:31.698Z,9.89
2023-02-19T21:15:34.788Z,9.93
2023-02-19T21:21:59.592Z,10.08
2023-02-19T21:25:01.734Z,9.82
2023-02-19T21:28:05.311Z,9.74
2023-02-19T21:31:07.873Z,9.46
2023-02-19T21:34:11.930Z,9.48
2023-02-19T21:37:14.345Z,9.59
2023-02-19T21:40:16.981Z,9.55
2023-02-19T21:43:19.225Z,9.63
2023-02-19T21:46:22.379Z,9.52
2023-02-19T21:49:24.598Z,9.67
2023-02-19T21:52:27.056Z,9.50
2023-02-19T21:55:29.246Z,9.21
2023-02-19T21:58:31.537Z,9.20
2023-02-19T22:01:38.654Z,9.25
2023-02-19T22:04:41.167Z,9.16
2023-02-19T22:07:43.418Z,9.11
2023-02-19T22:10:45.575Z,8.87
2023-02-19T22:13:47.812Z,8.66
2023-02-19T22:16:50.105Z,8.80
2023-02-19T22:19:52.382Z,8.77
2023-02-19T22:22:54.538Z,8.92
2023-02-19T22:25:56.736Z,8.82
2023-02-19T22:28:59.611Z,8.78
2023-02-19T22:32:02.057Z,8.78
2023-02-19T22:35:04.279Z,8.60
2023-02-19T22:38:06.552Z,8.44
2023-02-19T22:41:08.807Z,8.45
2023-02-19T22:44:11.452Z,8.50
2023-02-19T22:47:13.799Z,8.47
2023-02-19T22:50:18.697Z,8.47
2023-02-19T22:53:20.886Z,8.56
2023-02-19T22:56:25.224Z,8.77
2023-02-19T22:59:27.438Z,8.57
2023-02-19T23:02:29.556Z,8.61
2023-02-19T23:05:32.391Z,8.75
2023-02-19T23:08:34.507Z,8.71
2023-02-19T23:11:39.405Z,8.81
2023-02-19T23:14:41.685Z,9.25
2023-02-19T23:17:43.832Z,8.92
2023-02-19T23:20:46.052Z,8.63
2023-02-19T23:23:48.258Z,8.85
2023-02-19T23:26:52.007Z,8.71
2023-02-19T23:29:55.348Z,8.95
2023-02-19T23:32:57.476Z,9.21
2023-02-19T23:35:59.695Z,9.41
2023-02-19T23:39:01.845Z,8.79
2023-02-19T23:42:04.091Z,8.94
2023-02-19T23:45:06.517Z,8.56
2023-02-19T23:48:08.746Z,8.95
2023-02-19T23:51:11.281Z,8.71
2023-02-19T23:54:13.663Z,8.22
2023-02-19T23:57:15.838Z,8.40
